Bayamon, PR (00958)

4:29 PM AST on January 30, 2015 (GMT -0400)
La Plata | Change Station
CLOSE
Current Station
Personal Weather Station
Location: Cayey, CAYEY
Elevation: 1234 ft
Nearby Weather Stations

Elev 1234 ft 18.13 °N, 66.15 °W | Updated 49 seconds ago

Scattered Clouds
Scattered Clouds
72.3 °F
Feels Like 71 °F
N
4.0
Wind Variable Wind from East
Gusts 8.0 mph

Today
High -- | Low -- °F
--% Chance of Precip.
Yesterday
High -- | Low -- °F
Precip. -- in
6:58 AM 6:17 PM
Waxing Gibbous, 85% visible
Pressure 29.95 in
Visibility 10.0 miles
Clouds Scattered Clouds 2300 ft
Scattered Clouds 8000 ft
Heat Index 71 °F
Dew Point 67 °F
Humidity 84%
Rainfall 0.02 in
Snow Depth Not available.
UV 2 out of 12
Pollen Not available.
Air Quality Not available.
Flu Activity Not available.
METAR TJSJ 301956Z 07011KT 10SM SCT023 SCT080 27/22 A2995 RMK AO2 SLP142 SHRA DSNT SW T02720217

More Conditions Fewer Conditions

Pressure 29.95 in
Visibility 10.0 miles
Clouds Scattered Clouds 2300 ft
Scattered Clouds 8000 ft
Heat Index 71 °F
Dew Point 67 °F
Humidity 84%
Rainfall 0.02 in
Snow Depth Not available.
UV 2 out of 12
Pollen Not available.
Air Quality Not available.
Flu Activity Not available.
METAR TJSJ 301956Z 07011KT 10SM SCT023 SCT080 27/22 A2995 RMK AO2 SLP142 SHRA DSNT SW T02720217

More Conditions Fewer Conditions

10-Day Weather Forecast

Almanac

Astronomy

Jan. 30, 2015 Rise Set
Actual Time
Civil Twilight
Nautical Twilight
Astronomical Twilight
Moon
Length of Visible Light
Length of Day
Tomorrow will be .
, % of the Moon is Illuminated

Today's Extremes

State Highs State Lows

Community

WunderPhotos

Upload Photos

1,791,887 photos uploaded!

WunderBlogs® & News

Nearby

Air Quality

  Air Quality AQ Index Pollutant
Not available.

Snow Depth

Station Depth Elevation

Earthquake Activity

City Distance Mag. Time & Date
Minimum magnitude displayed is 2.5.

Coastal Water Temperatures

Place Temperature

Nearby Weather Stations